createdAt,value
2022-10-25T00:01:43.953Z,14.47
2022-10-25T00:04:06.921Z,14.47
2022-10-25T00:06:29.560Z,14.50
2022-10-25T00:08:52.260Z,14.56
2022-10-25T00:11:26.871Z,14.59
2022-10-25T00:13:51.723Z,14.60
2022-10-25T00:16:17.032Z,14.67
2022-10-25T00:18:39.689Z,14.53
2022-10-25T00:21:04.691Z,14.56
2022-10-25T00:23:27.334Z,14.50
2022-10-25T00:25:50.079Z,14.61
2022-10-25T00:28:12.631Z,14.60
2022-10-25T00:30:35.217Z,14.57
2022-10-25T00:32:58.373Z,14.57
2022-10-25T00:35:20.993Z,14.60
2022-10-25T00:40:07.886Z,14.64
2022-10-25T00:42:30.465Z,14.53
2022-10-25T00:45:01.968Z,14.64
2022-10-25T00:47:38.819Z,14.61
2022-10-25T00:50:28.828Z,14.70
2022-10-25T00:52:55.858Z,14.66
2022-10-25T00:55:21.128Z,14.76
2022-10-25T00:57:49.193Z,14.53
2022-10-25T01:00:12.759Z,14.49
2022-10-25T01:02:35.499Z,14.44
2022-10-25T01:04:58.527Z,14.53
2022-10-25T01:07:21.166Z,14.46
2022-10-25T01:09:43.921Z,14.41
2022-10-25T01:12:06.511Z,14.47
2022-10-25T01:14:36.410Z,14.47
2022-10-25T01:17:29.977Z,14.59
2022-10-25T01:20:46.539Z,14.53
2022-10-25T01:23:27.968Z,14.60
2022-10-25T01:26:13.924Z,14.68
2022-10-25T01:29:01.049Z,14.61
2022-10-25T01:31:47.488Z,14.63
2022-10-25T01:34:48.239Z,14.64
2022-10-25T01:37:25.783Z,14.70
2022-10-25T01:40:03.084Z,14.74
2022-10-25T01:42:51.560Z,14.74
2022-10-25T01:45:28.475Z,14.57
2022-10-25T01:47:59.432Z,14.53
2022-10-25T01:50:28.091Z,14.46
2022-10-25T01:52:50.700Z,14.36
2022-10-25T01:55:14.828Z,14.29
2022-10-25T01:57:49.361Z,14.22
2022-10-25T02:00:18.047Z,14.22
2022-10-25T02:02:49.573Z,14.18
2022-10-25T02:05:35.838Z,14.13
2022-10-25T02:08:36.099Z,14.23
2022-10-25T02:11:24.826Z,14.20
2022-10-25T02:14:05.759Z,14.19
2022-10-25T02:16:32.256Z,14.20
2022-10-25T02:19:02.415Z,14.11
2022-10-25T02:21:27.959Z,14.02
2022-10-25T02:23:51.968Z,14.01
2022-10-25T02:26:16.725Z,14.02
2022-10-25T02:28:41.082Z,14.09
2022-10-25T02:31:05.904Z,14.08
2022-10-25T02:33:28.475Z,14.13
2022-10-25T02:36:13.036Z,14.08
2022-10-25T02:38:36.442Z,14.00
2022-10-25T02:41:00.294Z,13.91
2022-10-25T02:43:23.022Z,13.89
2022-10-25T02:45:45.619Z,13.88
2022-10-25T02:48:08.185Z,13.89
2022-10-25T02:50:30.719Z,13.84
2022-10-25T02:52:53.242Z,13.86
2022-10-25T02:55:15.758Z,13.94
2022-10-25T02:57:38.314Z,14.00
2022-10-25T03:00:01.043Z,14.01
2022-10-25T03:02:23.843Z,14.00
2022-10-25T03:04:46.427Z,14.02
2022-10-25T03:07:09.057Z,14.02
2022-10-25T03:09:31.673Z,14.00
2022-10-25T03:11:54.218Z,14.11
2022-10-25T03:14:16.669Z,13.97
2022-10-25T03:16:39.472Z,14.01
2022-10-25T03:19:02.160Z,13.92
2022-10-25T03:21:25.374Z,13.94
2022-10-25T03:23:47.883Z,13.88
2022-10-25T03:26:10.466Z,13.86
2022-10-25T03:28:33.152Z,13.89
2022-10-25T03:30:56.962Z,13.91
2022-10-25T03:33:19.877Z,13.89
2022-10-25T03:35:42.624Z,13.88
2022-10-25T03:38:05.504Z,13.88
2022-10-25T03:40:28.448Z,13.89
2022-10-25T03:42:50.993Z,13.91
2022-10-25T03:45:13.603Z,13.95
2022-10-25T03:47:36.130Z,13.97
2022-10-25T03:49:58.673Z,13.98
2022-10-25T03:52:21.303Z,14.04
2022-10-25T03:54:43.931Z,14.11
2022-10-25T03:57:06.510Z,14.20
2022-10-25T03:59:29.270Z,14.18
2022-10-25T04:01:51.818Z,14.20
2022-10-25T04:04:14.484Z,14.22
2022-10-25T04:06:36.984Z,14.33
2022-10-25T04:08:59.585Z,14.39
2022-10-25T04:11:22.035Z,14.44
2022-10-25T04:13:44.548Z,14.36
2022-10-25T04:16:08.687Z,14.37
2022-10-25T04:18:31.544Z,14.40
2022-10-25T04:20:54.024Z,14.33
2022-10-25T04:23:16.669Z,14.34
2022-10-25T04:25:39.221Z,14.43
2022-10-25T04:28:01.722Z,14.34
2022-10-25T04:30:24.524Z,14.28
2022-10-25T04:32:47.542Z,14.30
2022-10-25T04:35:10.820Z,14.29
2022-10-25T04:37:33.325Z,14.34
2022-10-25T04:39:55.829Z,14.32
2022-10-25T04:42:19.504Z,14.32
2022-10-25T04:44:42.162Z,14.23
2022-10-25T04:47:04.704Z,14.16
2022-10-25T04:49:27.291Z,14.18
2022-10-25T04:54:17.397Z,14.22
2022-10-25T04:56:39.915Z,14.30
2022-10-25T04:59:02.404Z,14.36
2022-10-25T05:01:25.950Z,14.34
2022-10-25T05:03:49.380Z,14.39
2022-10-25T05:06:19.758Z,14.33
2022-10-25T05:08:44.550Z,14.36
2022-10-25T05:11:08.825Z,14.41
2022-10-25T05:13:33.509Z,14.49
2022-10-25T05:15:56.958Z,14.37
2022-10-25T05:18:19.586Z,14.23
2022-10-25T05:20:42.322Z,14.25
2022-10-25T05:23:04.889Z,14.23
2022-10-25T05:25:27.592Z,14.18
2022-10-25T05:27:50.756Z,14.15
2022-10-25T05:30:13.784Z,14.11
2022-10-25T05:32:37.936Z,14.09
2022-10-25T05:35:00.599Z,14.08
2022-10-25T05:37:23.223Z,14.12
2022-10-25T05:39:46.040Z,14.04
2022-10-25T05:42:08.630Z,14.08
2022-10-25T05:44:31.172Z,14.05
2022-10-25T05:46:55.354Z,14.09
2022-10-25T05:49:18.077Z,14.11
2022-10-25T05:51:40.910Z,14.16
2022-10-25T05:54:10.181Z,14.19
2022-10-25T05:56:34.106Z,14.20
2022-10-25T05:58:58.043Z,14.29
2022-10-25T06:01:22.214Z,14.30
2022-10-25T06:03:48.220Z,14.20
2022-10-25T06:06:12.288Z,14.20
2022-10-25T06:08:35.480Z,14.25
2022-10-25T06:11:03.008Z,14.33
2022-10-25T06:13:25.612Z,14.34
2022-10-25T06:15:48.153Z,14.37
2022-10-25T06:18:10.859Z,14.36
2022-10-25T06:20:33.633Z,14.36
2022-10-25T06:22:56.368Z,14.36
2022-10-25T06:25:18.958Z,14.49
2022-10-25T06:27:41.752Z,14.49
2022-10-25T06:30:04.755Z,14.56
2022-10-25T06:32:28.476Z,14.64
2022-10-25T06:34:51.551Z,14.77
2022-10-25T06:37:15.580Z,14.85
2022-10-25T06:39:38.311Z,15.05
2022-10-25T06:42:01.377Z,15.16
2022-10-25T06:44:25.939Z,15.19
2022-10-25T06:47:18.543Z,15.29
2022-10-25T06:49:31.898Z,15.46
2022-10-25T06:51:54.961Z,15.46
2022-10-25T06:54:18.428Z,15.45
2022-10-25T06:56:41.134Z,15.59
2022-10-25T06:59:06.993Z,15.67
2022-10-25T07:01:29.874Z,15.67
2022-10-25T07:03:54.590Z,15.86
2022-10-25T07:06:19.510Z,15.90
2022-10-25T07:08:44.672Z,15.97
2022-10-25T07:11:12.707Z,16.00
2022-10-25T07:13:35.451Z,16.14
2022-10-25T07:16:05.808Z,16.10
2022-10-25T07:18:28.913Z,16.15
2022-10-25T07:20:51.641Z,16.24
2022-10-25T07:23:16.202Z,16.31
2022-10-25T07:25:38.791Z,16.32
2022-10-25T07:28:01.407Z,16.25
2022-10-25T07:30:24.103Z,16.19
2022-10-25T07:32:46.795Z,16.17
2022-10-25T07:35:09.752Z,16.17
2022-10-25T07:37:32.370Z,16.19
2022-10-25T07:39:55.025Z,16.35
2022-10-25T07:42:17.714Z,16.35
2022-10-25T07:44:40.278Z,16.32
2022-10-25T07:47:02.934Z,16.38
2022-10-25T07:49:25.712Z,16.42
2022-10-25T07:51:48.520Z,16.58
2022-10-25T07:54:11.372Z,16.66
2022-10-25T07:56:34.036Z,16.72
2022-10-25T07:58:57.083Z,16.87
2022-10-25T08:01:22.893Z,16.87
2022-10-25T08:03:45.622Z,16.91
2022-10-25T08:06:08.188Z,16.96
2022-10-25T08:08:31.359Z,17.08
2022-10-25T08:10:54.665Z,17.06
2022-10-25T08:13:17.503Z,17.18
2022-10-25T08:15:41.018Z,17.34
2022-10-25T08:18:04.994Z,17.38
2022-10-25T08:20:43.340Z,17.31
2022-10-25T08:23:11.500Z,17.46
2022-10-25T08:25:34.184Z,17.48
2022-10-25T08:27:56.917Z,17.59
2022-10-25T08:30:19.755Z,17.52
2022-10-25T08:32:42.370Z,17.38
2022-10-25T08:35:05.232Z,17.39
2022-10-25T08:37:28.142Z,17.24
2022-10-25T08:39:53.506Z,17.36
2022-10-25T08:43:00.700Z,17.28
2022-10-25T08:45:32.815Z,17.38
2022-10-25T08:47:58.103Z,17.48
2022-10-25T08:50:24.413Z,17.48
2022-10-25T08:52:53.708Z,17.48
2022-10-25T08:55:32.875Z,17.58
2022-10-25T08:57:56.393Z,17.58
2022-10-25T09:00:22.612Z,17.49
2022-10-25T09:02:54.158Z,17.39
2022-10-25T09:05:36.913Z,17.35
2022-10-25T09:08:20.125Z,17.39
2022-10-25T09:10:50.148Z,17.56
2022-10-25T09:13:31.016Z,17.73
2022-10-25T09:16:06.462Z,17.83
2022-10-25T09:18:42.717Z,17.91
2022-10-25T09:21:22.253Z,18.06
2022-10-25T09:23:57.112Z,18.30
2022-10-25T09:26:31.343Z,18.33
2022-10-25T09:29:02.598Z,18.26
2022-10-25T09:31:25.980Z,18.09
2022-10-25T09:33:50.633Z,17.97
2022-10-25T09:36:15.006Z,17.83
2022-10-25T09:38:47.464Z,17.94
2022-10-25T09:41:25.388Z,17.65
2022-10-25T09:43:57.606Z,17.56
2022-10-25T09:46:33.277Z,17.61
2022-10-25T09:49:02.779Z,17.82
2022-10-25T09:51:26.566Z,17.85
2022-10-25T09:53:49.870Z,17.99
2022-10-25T09:56:12.876Z,17.83
2022-10-25T09:58:40.198Z,17.61
2022-10-25T10:01:15.539Z,17.55
2022-10-25T10:03:43.102Z,17.55
2022-10-25T10:06:26.250Z,17.44
2022-10-25T10:09:04.388Z,17.66
2022-10-25T10:11:28.264Z,17.53
2022-10-25T10:14:12.038Z,17.66
2022-10-25T10:16:53.647Z,17.63
2022-10-25T10:19:23.404Z,17.53
2022-10-25T10:21:51.158Z,17.41
2022-10-25T10:24:21.137Z,17.44
2022-10-25T10:26:47.543Z,17.44
2022-10-25T10:29:22.781Z,17.56
2022-10-25T10:31:50.794Z,17.68
2022-10-25T10:34:42.737Z,17.61
2022-10-25T10:37:20.793Z,17.65
2022-10-25T10:40:13.699Z,17.79
2022-10-25T10:42:42.859Z,17.93
2022-10-25T10:45:13.167Z,18.07
2022-10-25T10:47:39.144Z,18.06
2022-10-25T10:50:11.149Z,17.96
2022-10-25T10:52:42.521Z,18.01
2022-10-25T10:55:08.271Z,18.16
2022-10-25T10:57:36.123Z,18.20
2022-10-25T11:00:00.375Z,18.21
2022-10-25T11:02:38.151Z,18.31
2022-10-25T11:05:01.890Z,18.52
2022-10-25T11:07:35.587Z,18.58
2022-10-25T11:10:19.561Z,18.61
2022-10-25T11:12:43.270Z,18.73
2022-10-25T11:15:13.303Z,18.62
2022-10-25T11:17:41.021Z,18.52
2022-10-25T11:20:27.900Z,18.52
2022-10-25T11:23:05.198Z,18.45
2022-10-25T11:25:38.687Z,18.34
2022-10-25T11:28:28.223Z,18.28
2022-10-25T11:31:09.676Z,18.37
2022-10-25T11:34:15.461Z,18.09
2022-10-25T11:37:04.980Z,18.07
2022-10-25T11:40:10.639Z,17.97
2022-10-25T11:42:50.037Z,17.93
2022-10-25T11:45:33.078Z,17.89
2022-10-25T11:48:33.810Z,17.82
2022-10-25T11:51:02.829Z,17.86
2022-10-25T11:53:36.451Z,17.96
2022-10-25T11:56:13.219Z,18.24
2022-10-25T11:59:06.159Z,18.33
2022-10-25T12:01:46.842Z,18.48
2022-10-25T12:04:41.507Z,18.72
2022-10-25T12:07:22.772Z,18.84
2022-10-25T12:10:05.481Z,18.91
2022-10-25T12:12:43.541Z,18.89
2022-10-25T12:15:12.473Z,19.07
2022-10-25T12:17:35.586Z,19.17
2022-10-25T12:20:05.509Z,19.24
2022-10-25T12:22:38.040Z,19.24
2022-10-25T12:25:05.310Z,19.22
2022-10-25T12:27:29.812Z,19.31
2022-10-25T12:30:07.433Z,19.30
2022-10-25T12:32:38.941Z,19.34
2022-10-25T12:35:05.755Z,19.35
2022-10-25T12:37:40.155Z,19.44
2022-10-25T12:40:04.664Z,19.43
2022-10-25T12:42:27.963Z,19.37
2022-10-25T12:45:03.196Z,19.53
2022-10-25T12:47:44.135Z,19.44
2022-10-25T12:50:28.359Z,19.44
2022-10-25T12:53:04.459Z,19.46
2022-10-25T12:55:42.296Z,19.46
2022-10-25T12:58:38.622Z,19.43
2022-10-25T13:01:13.929Z,19.43
2022-10-25T13:03:51.375Z,19.49
2022-10-25T13:06:31.308Z,19.49
2022-10-25T13:08:59.908Z,19.53
2022-10-25T13:11:33.294Z,19.53
2022-10-25T13:13:56.324Z,19.50
2022-10-25T13:16:30.867Z,19.57
2022-10-25T13:22:39.336Z,19.38
2022-10-25T13:25:05.862Z,19.43
2022-10-25T13:27:31.078Z,19.43
2022-10-25T13:30:11.343Z,19.46
2022-10-25T13:32:39.400Z,19.41
2022-10-25T13:35:03.930Z,19.44
2022-10-25T13:37:32.898Z,19.34
2022-10-25T13:39:57.791Z,19.35
2022-10-25T13:42:36.697Z,19.38
2022-10-25T13:45:09.345Z,19.49
2022-10-25T13:47:44.108Z,19.34
2022-10-25T13:50:33.308Z,19.43
2022-10-25T13:53:21.094Z,19.38
2022-10-25T13:55:56.049Z,19.40
2022-10-25T13:58:32.010Z,19.40
2022-10-25T14:01:18.643Z,19.38
2022-10-25T14:04:02.914Z,19.34
2022-10-25T14:06:36.915Z,19.23
2022-10-25T14:09:11.670Z,19.31
2022-10-25T14:11:54.469Z,19.26
2022-10-25T14:14:28.852Z,19.28
2022-10-25T14:17:03.777Z,19.23
2022-10-25T14:19:38.008Z,19.22
2022-10-25T14:22:02.847Z,19.13
2022-10-25T14:24:25.385Z,19.07
2022-10-25T14:26:55.114Z,18.96
2022-10-25T14:29:21.992Z,18.92
2022-10-25T14:31:45.303Z,18.85
2022-10-25T14:34:18.992Z,18.91
2022-10-25T14:36:41.750Z,18.98
2022-10-25T14:39:16.493Z,18.88
2022-10-25T14:41:39.528Z,18.72
2022-10-25T14:44:02.776Z,18.65
2022-10-25T14:46:28.096Z,18.52
2022-10-25T14:48:56.244Z,18.37
2022-10-25T14:51:24.375Z,18.30
2022-10-25T14:53:57.942Z,18.24
2022-10-25T14:56:24.890Z,18.23
2022-10-25T14:58:47.865Z,18.11
2022-10-25T15:01:14.831Z,17.99
2022-10-25T15:03:43.345Z,17.83
2022-10-25T15:06:06.229Z,17.76
2022-10-25T15:08:29.125Z,17.79
2022-10-25T15:11:04.335Z,17.68
2022-10-25T15:13:38.406Z,17.58
2022-10-25T15:16:04.205Z,17.53
2022-10-25T15:18:26.688Z,17.44
2022-10-25T15:20:50.367Z,17.31
2022-10-25T15:23:21.709Z,17.35
2022-10-25T15:25:44.211Z,17.14
2022-10-25T15:28:15.099Z,17.08
2022-10-25T15:30:41.542Z,17.13
2022-10-25T15:33:08.610Z,16.99
2022-10-25T15:35:33.408Z,16.81
2022-10-25T15:37:56.874Z,16.76
2022-10-25T15:40:20.024Z,16.67
2022-10-25T15:42:42.567Z,16.75
2022-10-25T15:45:06.008Z,16.67
2022-10-25T15:47:34.223Z,16.60
2022-10-25T15:49:57.769Z,16.52
2022-10-25T15:52:21.045Z,16.45
2022-10-25T15:54:44.032Z,16.45
2022-10-25T15:57:06.768Z,16.28
2022-10-25T15:59:29.392Z,16.22
2022-10-25T16:01:53.607Z,16.07
2022-10-25T16:04:18.966Z,16.00
2022-10-25T16:06:42.711Z,15.98
2022-10-25T16:09:05.297Z,15.89
2022-10-25T16:11:28.363Z,15.77
2022-10-25T16:13:52.970Z,15.63
2022-10-25T16:16:43.308Z,15.54
2022-10-25T16:19:05.916Z,15.42
2022-10-25T16:21:28.448Z,15.38
2022-10-25T16:23:51.126Z,15.28
2022-10-25T16:26:35.440Z,15.18
2022-10-25T16:29:14.751Z,15.18
2022-10-25T16:31:37.502Z,15.11
2022-10-25T16:34:00.052Z,15.04
2022-10-25T16:36:22.655Z,15.06
2022-10-25T16:38:45.261Z,15.02
2022-10-25T16:41:23.218Z,14.91
2022-10-25T16:43:49.134Z,15.04
2022-10-25T16:46:11.921Z,15.08
2022-10-25T16:48:36.532Z,14.99
2022-10-25T16:50:59.119Z,15.11
2022-10-25T16:53:21.741Z,15.22
2022-10-25T16:55:44.431Z,15.21
2022-10-25T16:58:07.243Z,15.18
2022-10-25T17:00:33.008Z,15.11
2022-10-25T17:02:56.261Z,15.04
2022-10-25T17:05:25.636Z,14.94
2022-10-25T17:07:49.379Z,14.77
2022-10-25T17:10:14.323Z,14.73
2022-10-25T17:12:46.782Z,14.66
2022-10-25T17:15:09.945Z,14.39
2022-10-25T17:17:32.534Z,14.33
2022-10-25T17:19:55.145Z,14.18
2022-10-25T17:22:17.965Z,14.12
2022-10-25T17:25:02.198Z,14.06
2022-10-25T17:27:26.004Z,14.06
2022-10-25T17:29:48.808Z,14.06
2022-10-25T17:32:11.547Z,14.08
2022-10-25T17:34:34.082Z,14.02
2022-10-25T17:36:56.649Z,13.98
2022-10-25T17:39:19.185Z,14.02
2022-10-25T17:41:42.010Z,13.95
2022-10-25T17:44:04.690Z,14.04
2022-10-25T17:46:29.496Z,14.11
2022-10-25T17:49:03.259Z,14.04
2022-10-25T17:51:26.128Z,13.92
2022-10-25T17:53:55.356Z,13.86
2022-10-25T17:56:19.407Z,13.88
2022-10-25T17:58:43.673Z,13.78
2022-10-25T18:01:06.491Z,13.78
2022-10-25T18:03:31.440Z,13.74
2022-10-25T18:05:54.096Z,13.68
2022-10-25T18:08:16.773Z,13.67
2022-10-25T18:10:39.850Z,13.64
2022-10-25T18:13:03.672Z,13.67
2022-10-25T18:15:27.324Z,13.74
2022-10-25T18:17:50.317Z,13.92
2022-10-25T18:20:13.537Z,13.89
2022-10-25T18:22:36.096Z,13.92
2022-10-25T18:24:58.884Z,13.88
2022-10-25T18:27:21.659Z,13.60
2022-10-25T18:29:44.647Z,13.43
2022-10-25T18:32:07.446Z,13.28
2022-10-25T18:34:30.379Z,13.20
2022-10-25T18:36:53.566Z,13.15
2022-10-25T18:39:16.388Z,13.09
2022-10-25T18:41:40.886Z,13.10
2022-10-25T18:44:04.035Z,13.19
2022-10-25T18:46:30.749Z,13.33
2022-10-25T18:48:55.715Z,13.30
2022-10-25T18:51:20.570Z,13.20
2022-10-25T18:53:43.400Z,13.10
2022-10-25T18:56:19.554Z,13.07
2022-10-25T18:58:45.520Z,13.10
2022-10-25T19:01:17.009Z,13.20
2022-10-25T19:03:40.842Z,13.22
2022-10-25T19:06:04.753Z,13.12
2022-10-25T19:08:28.594Z,13.09
2022-10-25T19:10:51.698Z,13.03
2022-10-25T19:13:19.322Z,13.03
2022-10-25T19:15:42.162Z,12.99
2022-10-25T19:18:05.215Z,12.91
2022-10-25T19:20:28.049Z,12.91
2022-10-25T19:22:50.759Z,12.88
2022-10-25T19:25:13.504Z,12.77
2022-10-25T19:27:36.341Z,12.69
2022-10-25T19:29:59.184Z,12.69
2022-10-25T19:32:22.085Z,12.74
2022-10-25T19:34:44.926Z,12.69
2022-10-25T19:37:08.934Z,12.68
2022-10-25T19:39:31.844Z,12.67
2022-10-25T19:41:54.607Z,12.60
2022-10-25T19:44:17.336Z,12.55
2022-10-25T19:46:40.194Z,12.65
2022-10-25T19:49:04.137Z,12.67
2022-10-25T19:51:27.147Z,12.68
2022-10-25T19:53:49.970Z,12.68
2022-10-25T19:56:15.550Z,12.62
2022-10-25T19:58:38.626Z,12.69
2022-10-25T20:01:08.106Z,12.74
2022-10-25T20:03:31.219Z,12.75
2022-10-25T20:05:58.980Z,12.68
2022-10-25T20:08:21.451Z,12.68
2022-10-25T20:10:44.151Z,12.65
2022-10-25T20:13:07.854Z,12.68
2022-10-25T20:15:31.732Z,12.69
2022-10-25T20:17:54.554Z,12.68
2022-10-25T20:20:17.328Z,12.64
2022-10-25T20:22:39.948Z,12.68
2022-10-25T20:25:02.764Z,12.69
2022-10-25T20:27:25.544Z,12.84
2022-10-25T20:29:48.221Z,12.78
2022-10-25T20:32:12.669Z,12.62
2022-10-25T20:34:37.435Z,12.54
2022-10-25T20:37:00.180Z,12.36
2022-10-25T20:39:23.015Z,12.31
2022-10-25T20:41:46.044Z,12.34
2022-10-25T20:44:09.642Z,12.27
2022-10-25T20:46:33.457Z,11.99
2022-10-25T20:48:58.092Z,11.79
2022-10-25T20:51:21.310Z,11.62
2022-10-25T20:53:45.863Z,11.54
2022-10-25T20:56:08.512Z,11.47
2022-10-25T20:58:31.391Z,11.45
2022-10-25T21:00:56.357Z,11.42
2022-10-25T21:03:18.912Z,11.24
2022-10-25T21:05:45.359Z,11.14
2022-10-25T21:08:08.615Z,11.14
2022-10-25T21:10:31.264Z,11.24
2022-10-25T21:12:53.917Z,11.44
2022-10-25T21:15:16.765Z,11.64
2022-10-25T21:17:39.527Z,11.82
2022-10-25T21:20:02.097Z,11.94
2022-10-25T21:22:24.762Z,11.94
2022-10-25T21:24:47.365Z,11.89
2022-10-25T21:27:10.521Z,11.89
2022-10-25T21:29:33.170Z,11.94
2022-10-25T21:31:55.790Z,11.79
2022-10-25T21:36:45.853Z,11.86
2022-10-25T21:39:08.388Z,11.85
2022-10-25T21:41:31.088Z,11.85
2022-10-25T21:43:54.434Z,11.71
2022-10-25T21:46:18.494Z,11.55
2022-10-25T21:48:42.005Z,11.54
2022-10-25T21:51:05.317Z,11.50
2022-10-25T21:53:29.043Z,11.42
2022-10-25T21:55:51.632Z,11.35
2022-10-25T21:58:14.218Z,11.30
2022-10-25T22:00:36.873Z,11.11
2022-10-25T22:02:59.465Z,10.90
2022-10-25T22:05:22.218Z,10.86
2022-10-25T22:07:44.900Z,10.83
2022-10-25T22:10:07.834Z,10.95
2022-10-25T22:12:30.387Z,11.11
2022-10-25T22:14:54.202Z,11.17
2022-10-25T22:17:22.565Z,11.24
2022-10-25T22:19:46.083Z,11.17
2022-10-25T22:22:08.692Z,11.26
2022-10-25T22:24:31.232Z,11.17
2022-10-25T22:26:53.890Z,11.34
2022-10-25T22:29:16.509Z,11.28
2022-10-25T22:31:39.515Z,11.16
2022-10-25T22:34:04.735Z,11.04
2022-10-25T22:36:29.408Z,11.20
2022-10-25T22:38:52.273Z,11.23
2022-10-25T22:41:20.016Z,11.26
2022-10-25T22:43:43.746Z,11.34
2022-10-25T22:46:08.649Z,11.26
2022-10-25T22:48:32.964Z,11.34
2022-10-25T22:50:55.443Z,11.26
2022-10-25T22:53:18.796Z,11.18
2022-10-25T22:55:41.505Z,11.17
2022-10-25T22:58:04.571Z,10.89
2022-10-25T23:00:27.202Z,10.58
2022-10-25T23:02:50.049Z,10.40
2022-10-25T23:05:13.067Z,10.48
2022-10-25T23:07:35.645Z,10.48
2022-10-25T23:09:58.178Z,10.45
2022-10-25T23:12:20.743Z,10.40
2022-10-25T23:14:43.341Z,10.45
2022-10-25T23:17:05.910Z,10.53
2022-10-25T23:19:28.533Z,10.48
2022-10-25T23:21:51.124Z,10.45
2022-10-25T23:24:13.726Z,10.42
2022-10-25T23:26:36.635Z,10.44
2022-10-25T23:29:00.410Z,10.53
2022-10-25T23:31:24.317Z,10.55
2022-10-25T23:33:53.984Z,10.56
2022-10-25T23:36:22.029Z,10.46
2022-10-25T23:38:44.975Z,10.45
2022-10-25T23:41:07.557Z,10.31
2022-10-25T23:43:30.553Z,10.34
2022-10-25T23:45:53.203Z,10.28
2022-10-25T23:48:15.802Z,10.34
2022-10-25T23:50:38.291Z,10.34
2022-10-25T23:53:00.927Z,10.30
2022-10-25T23:55:23.588Z,10.25
2022-10-25T23:57:46.551Z,10.27
